createdAt,value
2023-02-18T00:01:39.489Z,53.58
2023-02-18T00:04:07.137Z,53.79
2023-02-18T00:06:36.480Z,53.94
2023-02-18T00:09:06.205Z,53.24
2023-02-18T00:11:36.402Z,52.97
2023-02-18T00:14:07.666Z,53.04
2023-02-18T00:16:35.197Z,53.10
2023-02-18T00:19:05.989Z,52.89
2023-02-18T00:21:35.832Z,52.79
2023-02-18T00:24:08.674Z,52.83
2023-02-18T00:26:36.622Z,52.73
2023-02-18T00:29:04.614Z,52.73
2023-02-18T00:31:36.577Z,53.01
2023-02-18T00:34:05.685Z,53.04
2023-02-18T00:36:35.258Z,52.59
2023-02-18T00:39:09.367Z,52.81
2023-02-18T00:41:37.823Z,52.45
2023-02-18T00:44:06.266Z,52.47
2023-02-18T00:46:35.725Z,52.28
2023-02-18T00:49:04.763Z,52.12
2023-02-18T00:51:32.811Z,51.92
2023-02-18T00:54:00.607Z,52.31
2023-02-18T00:56:28.232Z,51.88
2023-02-18T00:58:55.861Z,52.30
2023-02-18T01:01:24.205Z,51.92
2023-02-18T01:03:51.794Z,51.83
2023-02-18T01:06:19.773Z,52.03
2023-02-18T01:08:49.718Z,52.74
2023-02-18T01:11:17.650Z,52.75
2023-02-18T01:13:46.693Z,52.72
2023-02-18T01:16:14.377Z,52.83
2023-02-18T01:18:41.931Z,52.66
2023-02-18T01:21:10.176Z,52.49
2023-02-18T01:23:40.326Z,51.92
2023-02-18T01:26:10.022Z,52.15
2023-02-18T01:28:40.959Z,52.55
2023-02-18T01:31:12.629Z,51.74
2023-02-18T01:33:41.118Z,51.63
2023-02-18T01:36:10.895Z,51.38
2023-02-18T01:38:38.746Z,51.40
2023-02-18T01:41:06.657Z,51.45
2023-02-18T01:43:34.778Z,51.67
2023-02-18T01:46:22.234Z,51.59
2023-02-18T01:48:57.469Z,51.21
2023-02-18T01:51:34.222Z,50.89
2023-02-18T01:54:18.485Z,51.29
2023-02-18T01:57:01.684Z,51.74
2023-02-18T01:59:39.456Z,51.71
2023-02-18T02:02:13.104Z,52.05
2023-02-18T02:04:41.552Z,52.14
2023-02-18T02:07:10.652Z,51.79
2023-02-18T02:09:40.353Z,51.88
2023-02-18T02:12:33.466Z,51.69
2023-02-18T02:15:09.797Z,51.95
2023-02-18T02:18:09.433Z,51.91
2023-02-18T02:21:11.805Z,52.13
2023-02-18T02:24:01.741Z,52.17
2023-02-18T02:27:01.307Z,52.50
2023-02-18T02:29:51.252Z,51.90
2023-02-18T02:32:35.750Z,52.28
2023-02-18T02:35:24.933Z,51.94
2023-02-18T02:38:14.741Z,51.90
2023-02-18T02:40:56.861Z,51.44
2023-02-18T02:44:10.681Z,51.74
2023-02-18T02:46:45.961Z,51.07
2023-02-18T02:49:37.771Z,51.42
2023-02-18T02:52:33.162Z,51.72
2023-02-18T02:55:03.544Z,51.35
2023-02-18T02:57:30.989Z,51.30
2023-02-18T03:00:10.463Z,51.25
2023-02-18T03:03:12.686Z,51.02
2023-02-18T03:06:27.272Z,51.67
2023-02-18T03:09:09.507Z,51.61
2023-02-18T03:11:52.367Z,51.68
2023-02-18T03:14:36.230Z,50.97
2023-02-18T03:17:15.373Z,50.57
2023-02-18T03:19:52.670Z,50.15
2023-02-18T03:22:37.843Z,50.33
2023-02-18T03:25:07.464Z,50.66
2023-02-18T03:27:53.334Z,50.69
2023-02-18T03:30:36.984Z,50.44
2023-02-18T03:33:09.597Z,50.59
2023-02-18T03:35:39.218Z,50.14
2023-02-18T03:38:31.806Z,50.51
2023-02-18T03:40:59.596Z,50.40
2023-02-18T03:43:27.174Z,50.46
2023-02-18T03:45:54.949Z,50.21
2023-02-18T03:48:23.012Z,50.49
2023-02-18T03:50:53.214Z,50.58
2023-02-18T03:53:20.853Z,50.08
2023-02-18T03:55:48.550Z,50.46
2023-02-18T03:58:16.137Z,50.44
2023-02-18T04:00:43.655Z,50.56
2023-02-18T04:03:11.221Z,50.37
2023-02-18T04:05:38.765Z,50.18
2023-02-18T04:08:06.328Z,50.11
2023-02-18T04:10:33.967Z,50.12
2023-02-18T04:13:01.636Z,50.06
2023-02-18T04:15:29.446Z,49.74
2023-02-18T04:17:57.054Z,49.77
2023-02-18T04:20:24.604Z,49.74
2023-02-18T04:22:52.150Z,49.76
2023-02-18T04:25:19.712Z,50.39
2023-02-18T04:27:47.394Z,49.61
2023-02-18T04:30:16.778Z,49.26
2023-02-18T04:32:46.053Z,49.13
2023-02-18T04:35:14.065Z,48.89
2023-02-18T04:37:41.739Z,48.76
2023-02-18T04:40:09.784Z,48.66
2023-02-18T04:42:37.383Z,48.53
2023-02-18T04:45:05.372Z,48.27
2023-02-18T04:47:32.969Z,48.21
2023-02-18T04:50:00.556Z,48.08
2023-02-18T04:52:28.180Z,48.25
2023-02-18T04:54:55.729Z,48.16
2023-02-18T04:57:23.328Z,48.41
2023-02-18T04:59:50.865Z,47.97
2023-02-18T05:02:18.468Z,47.95
2023-02-18T05:04:46.034Z,48.07
2023-02-18T05:07:13.716Z,48.09
2023-02-18T05:09:41.221Z,48.01
2023-02-18T05:12:09.048Z,47.97
2023-02-18T05:14:36.551Z,47.67
2023-02-18T05:17:04.119Z,48.04
2023-02-18T05:19:31.621Z,48.11
2023-02-18T05:21:59.159Z,48.12
2023-02-18T05:24:26.682Z,48.21
2023-02-18T05:26:54.251Z,48.22
2023-02-18T05:29:21.804Z,48.33
2023-02-18T05:31:49.525Z,48.04
2023-02-18T05:34:17.311Z,48.28
2023-02-18T05:36:44.837Z,48.18
2023-02-18T05:39:12.381Z,47.96
2023-02-18T05:41:39.956Z,47.66
2023-02-18T05:44:25.861Z,47.69
2023-02-18T05:46:53.421Z,47.65
2023-02-18T05:49:21.245Z,48.29
2023-02-18T05:51:48.852Z,47.95
2023-02-18T05:54:16.559Z,47.91
2023-02-18T05:56:44.132Z,47.83
2023-02-18T05:59:11.782Z,47.59
2023-02-18T06:01:39.318Z,47.54
2023-02-18T06:04:06.996Z,48.13
2023-02-18T06:06:35.807Z,48.22
2023-02-18T06:09:04.697Z,47.87
2023-02-18T06:11:32.837Z,47.96
2023-02-18T06:14:00.773Z,47.79
2023-02-18T06:16:28.857Z,47.54
2023-02-18T06:18:56.892Z,47.65
2023-02-18T06:21:24.739Z,47.52
2023-02-18T06:23:52.425Z,47.37
2023-02-18T06:26:20.041Z,47.19
2023-02-18T06:28:47.681Z,47.13
2023-02-18T06:31:15.359Z,46.94
2023-02-18T06:33:42.949Z,46.83
2023-02-18T06:36:13.105Z,46.79
2023-02-18T06:38:43.441Z,46.85
2023-02-18T06:41:12.375Z,46.66
2023-02-18T06:43:40.444Z,46.29
2023-02-18T06:46:08.674Z,46.98
2023-02-18T06:48:36.429Z,46.43
2023-02-18T06:51:04.442Z,46.63
2023-02-18T06:53:31.943Z,46.77
2023-02-18T06:55:59.449Z,46.87
2023-02-18T06:58:27.715Z,46.88
2023-02-18T07:00:55.259Z,46.70
2023-02-18T07:03:22.909Z,46.52
2023-02-18T07:05:50.442Z,46.44
2023-02-18T07:08:18.635Z,46.32
2023-02-18T07:10:46.871Z,46.07
2023-02-18T07:13:14.722Z,46.33
2023-02-18T07:15:42.236Z,46.25
2023-02-18T07:18:09.805Z,46.03
2023-02-18T07:20:37.317Z,46.13
2023-02-18T07:23:04.854Z,46.03
2023-02-18T07:25:32.354Z,46.10
2023-02-18T07:27:59.876Z,46.18
2023-02-18T07:30:27.455Z,46.12
2023-02-18T07:32:54.984Z,45.93
2023-02-18T07:35:22.637Z,45.83
2023-02-18T07:37:51.068Z,45.88
2023-02-18T07:40:21.608Z,45.69
2023-02-18T07:42:49.606Z,45.90
2023-02-18T07:45:17.321Z,45.84
2023-02-18T07:47:45.543Z,45.59
2023-02-18T07:50:13.095Z,45.73
2023-02-18T07:52:40.736Z,45.64
2023-02-18T07:55:09.032Z,45.56
2023-02-18T07:57:56.548Z,45.55
2023-02-18T08:00:24.363Z,45.73
2023-02-18T08:02:51.942Z,45.79
2023-02-18T08:05:19.555Z,46.18
2023-02-18T08:07:47.097Z,45.74
2023-02-18T08:10:14.591Z,45.42
2023-02-18T08:12:42.103Z,45.72
2023-02-18T08:15:09.901Z,45.76
2023-02-18T08:17:37.443Z,45.94
2023-02-18T08:20:06.234Z,46.05
2023-02-18T08:22:33.744Z,45.71
2023-02-18T08:25:01.260Z,45.69
2023-02-18T08:27:28.806Z,45.68
2023-02-18T08:29:56.322Z,45.24
2023-02-18T08:32:28.710Z,45.49
2023-02-18T08:34:56.832Z,45.41
2023-02-18T08:37:24.518Z,45.21
2023-02-18T08:39:52.264Z,45.39
2023-02-18T08:42:19.793Z,45.23
2023-02-18T08:44:47.405Z,45.02
2023-02-18T08:48:18.330Z,44.86
2023-02-18T08:50:02.456Z,44.96
2023-02-18T08:52:30.028Z,45.04
2023-02-18T08:54:57.597Z,44.84
2023-02-18T08:57:25.118Z,44.94
2023-02-18T08:59:52.662Z,45.13
2023-02-18T09:02:20.248Z,45.10
2023-02-18T09:04:47.788Z,44.87
2023-02-18T09:07:15.289Z,45.07
2023-02-18T09:09:42.814Z,44.90
2023-02-18T09:12:10.382Z,44.63
2023-02-18T09:14:37.911Z,44.86
2023-02-18T09:17:05.442Z,44.77
2023-02-18T09:19:32.941Z,44.76
2023-02-18T09:22:00.848Z,44.92
2023-02-18T09:24:28.500Z,44.77
2023-02-18T09:26:56.033Z,44.70
2023-02-18T09:29:23.579Z,44.71
2023-02-18T09:31:51.207Z,44.45
2023-02-18T09:34:18.830Z,44.77
2023-02-18T09:36:46.336Z,44.78
2023-02-18T09:39:13.948Z,44.40
2023-02-18T09:41:51.405Z,44.38
2023-02-18T09:44:21.789Z,44.65
2023-02-18T09:47:05.330Z,44.48
2023-02-18T09:49:38.144Z,44.31
2023-02-18T09:52:33.341Z,44.43
2023-02-18T09:55:21.354Z,44.59
2023-02-18T09:58:00.958Z,44.60
2023-02-18T10:00:46.137Z,44.53
2023-02-18T10:03:21.657Z,44.83
2023-02-18T10:06:10.518Z,44.57
2023-02-18T10:08:42.712Z,44.24
2023-02-18T10:11:36.744Z,44.41
2023-02-18T10:14:10.924Z,44.09
2023-02-18T10:16:38.504Z,44.30
2023-02-18T10:19:37.492Z,44.63
2023-02-18T10:22:08.685Z,45.19
2023-02-18T10:24:52.275Z,45.01
2023-02-18T10:27:37.129Z,44.72
2023-02-18T10:30:34.402Z,44.62
2023-02-18T10:33:33.391Z,45.29
2023-02-18T10:36:24.615Z,45.08
2023-02-18T10:39:38.552Z,45.33
2023-02-18T10:42:38.937Z,45.21
2023-02-18T10:45:40.162Z,45.84
2023-02-18T10:48:50.656Z,45.21
2023-02-18T10:51:24.415Z,45.26
2023-02-18T10:53:53.490Z,45.56
2023-02-18T10:56:42.087Z,44.83
2023-02-18T10:59:33.432Z,45.39
2023-02-18T11:02:18.424Z,44.75
2023-02-18T11:04:46.631Z,45.33
2023-02-18T11:07:23.171Z,44.65
2023-02-18T11:09:56.007Z,44.48
2023-02-18T11:12:28.958Z,44.66
2023-02-18T11:15:14.515Z,44.48
2023-02-18T11:17:45.351Z,44.08
2023-02-18T11:20:36.352Z,44.01
2023-02-18T11:23:06.730Z,44.31
2023-02-18T11:25:40.611Z,44.73
2023-02-18T11:28:44.140Z,44.53
2023-02-18T11:31:31.164Z,44.93
2023-02-18T11:34:03.037Z,45.51
2023-02-18T11:36:35.046Z,44.58
2023-02-18T11:39:26.444Z,44.18
2023-02-18T11:42:14.029Z,44.67
2023-02-18T11:44:56.433Z,45.42
2023-02-18T11:47:27.995Z,45.15
2023-02-18T11:50:20.760Z,45.35
2023-02-18T11:52:51.049Z,45.54
2023-02-18T11:55:23.018Z,45.49
2023-02-18T11:58:03.796Z,45.28
2023-02-18T12:00:51.724Z,45.03
2023-02-18T12:03:49.936Z,45.22
2023-02-18T12:06:44.468Z,44.77
2023-02-18T12:09:35.084Z,44.90
2023-02-18T12:12:33.397Z,44.79
2023-02-18T12:15:01.192Z,45.45
2023-02-18T12:18:01.656Z,45.12
2023-02-18T12:20:59.431Z,44.79
2023-02-18T12:24:04.234Z,44.67
2023-02-18T12:27:04.830Z,45.72
2023-02-18T12:29:54.430Z,45.48
2023-02-18T12:32:53.899Z,45.26
2023-02-18T12:36:00.098Z,45.17
2023-02-18T12:39:01.481Z,45.61
2023-02-18T12:42:05.983Z,46.14
2023-02-18T12:45:14.934Z,46.00
2023-02-18T12:48:19.952Z,45.94
2023-02-18T12:51:56.382Z,46.00
2023-02-18T12:54:49.054Z,46.18
2023-02-18T12:57:48.011Z,45.33
2023-02-18T13:00:31.129Z,46.02
2023-02-18T13:03:50.883Z,45.86
2023-02-18T13:06:48.796Z,45.17
2023-02-18T13:09:43.025Z,45.23
2023-02-18T13:12:38.813Z,44.94
2023-02-18T13:15:37.026Z,45.12
2023-02-18T13:18:14.730Z,45.63
2023-02-18T13:21:00.921Z,45.67
2023-02-18T13:23:35.701Z,46.16
2023-02-18T13:26:09.728Z,45.91
2023-02-18T13:29:00.737Z,45.56
2023-02-18T13:32:00.653Z,45.83
2023-02-18T13:34:46.118Z,46.22
2023-02-18T13:37:27.349Z,46.35
2023-02-18T13:39:58.114Z,46.23
2023-02-18T13:42:31.615Z,45.53
2023-02-18T13:44:59.092Z,46.25
2023-02-18T13:47:45.913Z,46.21
2023-02-18T13:50:26.481Z,46.51
2023-02-18T13:53:09.276Z,46.23
2023-02-18T13:56:05.485Z,45.86
2023-02-18T13:58:42.758Z,45.77
2023-02-18T14:01:13.143Z,45.48
2023-02-18T14:03:43.354Z,45.43
2023-02-18T14:06:28.682Z,45.55
2023-02-18T14:09:25.036Z,45.70
2023-02-18T14:12:26.529Z,45.51
2023-02-18T14:14:54.074Z,45.93
2023-02-18T14:17:21.466Z,46.68
2023-02-18T14:20:00.901Z,47.48
2023-02-18T14:22:39.442Z,47.07
2023-02-18T14:25:09.815Z,46.95
2023-02-18T14:27:38.911Z,46.91
2023-02-18T14:30:24.527Z,46.78
2023-02-18T14:32:57.199Z,47.09
2023-02-18T14:36:15.024Z,46.98
2023-02-18T14:39:35.972Z,46.56
2023-02-18T14:42:30.133Z,46.35
2023-02-18T14:45:31.121Z,46.51
2023-02-18T14:48:47.568Z,45.67
2023-02-18T14:51:19.789Z,46.24
2023-02-18T14:53:48.444Z,45.79
2023-02-18T14:56:21.045Z,45.42
2023-02-18T14:59:02.351Z,45.96
2023-02-18T15:01:31.340Z,45.66
2023-02-18T15:04:00.317Z,46.20
2023-02-18T15:06:38.305Z,46.41
2023-02-18T15:09:22.421Z,46.05
2023-02-18T15:11:57.780Z,46.29
2023-02-18T15:14:30.666Z,46.50
2023-02-18T15:16:59.491Z,46.58
2023-02-18T15:19:36.333Z,46.16
2023-02-18T15:22:03.886Z,46.66
2023-02-18T15:24:37.956Z,46.46
2023-02-18T15:27:24.807Z,46.59
2023-02-18T15:30:12.870Z,46.18
2023-02-18T15:32:40.594Z,46.03
2023-02-18T15:35:18.371Z,45.90
2023-02-18T15:37:52.741Z,46.12
2023-02-18T15:40:23.487Z,45.90
2023-02-18T15:42:56.072Z,45.87
2023-02-18T15:45:46.936Z,46.18
2023-02-18T15:48:48.416Z,45.53
2023-02-18T15:51:23.319Z,46.21
2023-02-18T15:53:54.952Z,46.35
2023-02-18T15:56:38.522Z,45.68
2023-02-18T15:59:35.644Z,46.28
2023-02-18T16:02:18.595Z,46.20
2023-02-18T16:04:57.771Z,46.37
2023-02-18T16:07:30.609Z,46.07
2023-02-18T16:10:20.394Z,46.23
2023-02-18T16:12:54.781Z,45.99
2023-02-18T16:15:28.681Z,46.15
2023-02-18T16:17:58.834Z,45.98
2023-02-18T16:20:37.921Z,46.01
2023-02-18T16:23:14.778Z,45.84
2023-02-18T16:25:47.005Z,46.13
2023-02-18T16:28:27.762Z,46.29
2023-02-18T16:30:55.417Z,46.43
2023-02-18T16:33:22.938Z,46.37
2023-02-18T16:35:51.159Z,46.37
2023-02-18T16:38:22.485Z,46.53
2023-02-18T16:40:52.186Z,46.74
2023-02-18T16:43:26.932Z,46.36
2023-02-18T16:45:58.855Z,46.90
2023-02-18T16:48:41.419Z,47.05
2023-02-18T16:51:34.490Z,47.52
2023-02-18T16:54:02.031Z,47.68
2023-02-18T16:56:35.328Z,48.24
2023-02-18T16:59:03.005Z,48.08
2023-02-18T17:01:42.576Z,48.26
2023-02-18T17:04:17.167Z,48.28
2023-02-18T17:06:48.441Z,48.41
2023-02-18T17:09:20.570Z,48.63
2023-02-18T17:11:54.664Z,48.45
2023-02-18T17:14:23.462Z,49.20
2023-02-18T17:16:54.269Z,49.08
2023-02-18T17:19:21.862Z,49.61
2023-02-18T17:21:49.430Z,50.03
2023-02-18T17:24:18.662Z,50.03
2023-02-18T17:26:46.294Z,49.66
2023-02-18T17:29:13.903Z,49.41
2023-02-18T17:31:46.863Z,49.29
2023-02-18T17:34:24.522Z,49.20
2023-02-18T17:36:52.178Z,49.23
2023-02-18T17:39:20.724Z,48.87
2023-02-18T17:41:48.401Z,49.68
2023-02-18T17:44:22.019Z,49.61
2023-02-18T17:46:50.017Z,49.47
2023-02-18T17:49:17.617Z,49.42
2023-02-18T17:51:45.145Z,49.53
2023-02-18T17:54:16.298Z,49.44
2023-02-18T17:56:44.727Z,49.65
2023-02-18T17:59:12.631Z,50.28
2023-02-18T18:01:40.379Z,50.67
2023-02-18T18:04:19.244Z,50.69
2023-02-18T18:06:47.298Z,50.60
2023-02-18T18:09:14.817Z,50.44
2023-02-18T18:11:42.701Z,50.77
2023-02-18T18:14:13.514Z,50.74
2023-02-18T18:16:41.055Z,51.04
2023-02-18T18:19:08.550Z,50.85
2023-02-18T18:21:36.723Z,51.61
2023-02-18T18:24:04.575Z,51.59
2023-02-18T18:26:32.199Z,51.26
2023-02-18T18:28:59.733Z,51.37
2023-02-18T18:31:27.445Z,52.02
2023-02-18T18:33:55.102Z,52.23
2023-02-18T18:36:24.269Z,52.23
2023-02-18T18:38:52.422Z,52.05
2023-02-18T18:41:22.485Z,51.95
2023-02-18T18:43:50.182Z,51.48
2023-02-18T18:46:18.507Z,51.63
2023-02-18T18:48:46.382Z,51.67
2023-02-18T18:51:21.441Z,52.15
2023-02-18T18:53:48.979Z,52.23
2023-02-18T18:56:16.508Z,52.28
2023-02-18T18:58:44.030Z,52.82
2023-02-18T19:01:18.737Z,52.79
2023-02-18T19:03:47.041Z,52.78
2023-02-18T19:06:16.738Z,52.92
2023-02-18T19:08:45.539Z,53.03
2023-02-18T19:11:14.203Z,53.03
2023-02-18T19:13:42.476Z,53.87
2023-02-18T19:16:20.099Z,54.64
2023-02-18T19:18:48.914Z,54.54
2023-02-18T19:21:16.912Z,55.08
2023-02-18T19:23:44.503Z,56.22
2023-02-18T19:26:14.493Z,57.02
2023-02-18T19:28:43.061Z,56.72
2023-02-18T19:31:11.302Z,57.64
2023-02-18T19:33:39.689Z,57.40
2023-02-18T19:36:09.547Z,57.10
2023-02-18T19:38:37.637Z,56.76
2023-02-18T19:41:12.798Z,57.52
2023-02-18T19:43:44.637Z,57.34
2023-02-18T19:46:18.178Z,57.42
2023-02-18T19:48:52.599Z,57.86
2023-02-18T19:51:21.575Z,57.20
2023-02-18T19:53:49.283Z,57.39
2023-02-18T19:56:16.890Z,57.43
2023-02-18T19:58:44.423Z,57.32
2023-02-18T20:01:14.998Z,57.36
2023-02-18T20:03:43.603Z,57.48
2023-02-18T20:06:19.429Z,57.18
2023-02-18T20:08:47.668Z,57.95
2023-02-18T20:11:15.408Z,57.76
2023-02-18T20:13:43.081Z,57.28
2023-02-18T20:16:11.624Z,57.45
2023-02-18T20:18:39.422Z,57.31
2023-02-18T20:21:10.719Z,57.21
2023-02-18T20:23:38.461Z,57.32
2023-02-18T20:26:11.067Z,57.50
2023-02-18T20:28:38.887Z,57.18
2023-02-18T20:31:09.731Z,57.83
2023-02-18T20:33:38.276Z,57.63
2023-02-18T20:36:08.345Z,58.05
2023-02-18T20:38:37.340Z,58.14
2023-02-18T20:41:11.893Z,57.81
2023-02-18T20:43:40.456Z,57.70
2023-02-18T20:46:12.545Z,58.41
2023-02-18T20:48:40.143Z,58.08
2023-02-18T20:51:13.810Z,57.92
2023-02-18T20:53:43.010Z,57.58
2023-02-18T20:56:10.875Z,57.87
2023-02-18T20:58:39.028Z,57.66
2023-02-18T21:01:13.926Z,57.63
2023-02-18T21:03:42.649Z,57.84
2023-02-18T21:06:13.904Z,58.20
2023-02-18T21:08:43.400Z,58.14
2023-02-18T21:11:24.889Z,58.16
2023-02-18T21:13:55.144Z,58.21
2023-02-18T21:16:25.178Z,58.51
2023-02-18T21:18:53.045Z,58.41
2023-02-18T21:21:22.828Z,58.20
2023-02-18T21:24:31.974Z,59.30
2023-02-18T21:26:59.533Z,59.15
2023-02-18T21:29:27.269Z,59.02
2023-02-18T21:31:54.964Z,58.87
2023-02-18T21:34:22.788Z,58.91
2023-02-18T21:36:50.360Z,58.68
2023-02-18T21:39:17.868Z,58.86
2023-02-18T21:41:45.385Z,58.98
2023-02-18T21:44:12.916Z,58.86
2023-02-18T21:46:40.542Z,58.92
2023-02-18T21:49:12.284Z,58.90
2023-02-18T21:51:57.937Z,59.11
2023-02-18T21:54:40.884Z,58.88
2023-02-18T21:57:15.367Z,58.83
2023-02-18T21:59:43.550Z,58.96
2023-02-18T22:02:31.553Z,59.34
2023-02-18T22:05:02.174Z,59.05
2023-02-18T22:07:30.059Z,58.81
2023-02-18T22:09:57.631Z,58.84
2023-02-18T22:12:28.265Z,58.98
2023-02-18T22:14:55.817Z,59.23
2023-02-18T22:17:23.326Z,59.20
2023-02-18T22:19:50.843Z,59.13
2023-02-18T22:22:18.412Z,58.65
2023-02-18T22:24:45.917Z,59.43
2023-02-18T22:27:13.417Z,59.12
2023-02-18T22:29:41.109Z,58.91
2023-02-18T22:32:08.707Z,59.01
2023-02-18T22:34:36.361Z,58.88
2023-02-18T22:37:03.943Z,58.74
2023-02-18T22:39:31.817Z,58.79
2023-02-18T22:41:59.356Z,58.55
2023-02-18T22:44:27.336Z,58.32
2023-02-18T22:46:57.017Z,58.40
2023-02-18T22:49:25.424Z,58.48
2023-02-18T22:51:54.318Z,58.18
2023-02-18T22:54:21.875Z,58.45
2023-02-18T22:56:49.713Z,58.26
2023-02-18T22:59:19.969Z,58.39
2023-02-18T23:01:49.496Z,58.44
2023-02-18T23:04:19.706Z,58.64
2023-02-18T23:06:48.709Z,58.74
2023-02-18T23:09:23.688Z,58.75
2023-02-18T23:11:58.086Z,58.72
2023-02-18T23:14:28.038Z,58.85
2023-02-18T23:17:14.188Z,58.69
2023-02-18T23:19:51.142Z,58.61
2023-02-18T23:22:39.986Z,58.67
2023-02-18T23:25:08.163Z,58.42
2023-02-18T23:27:35.700Z,58.12
2023-02-18T23:30:03.550Z,58.46
2023-02-18T23:32:31.969Z,58.40
2023-02-18T23:34:59.485Z,58.34
2023-02-18T23:37:45.314Z,58.42
2023-02-18T23:40:14.644Z,58.36
2023-02-18T23:42:42.157Z,58.69
2023-02-18T23:45:09.744Z,58.43
2023-02-18T23:47:37.294Z,58.85
2023-02-18T23:50:05.266Z,58.69
2023-02-18T23:52:33.877Z,58.66
2023-02-18T23:55:01.619Z,58.63
2023-02-18T23:57:32.839Z,58.78
